Time;durP1;ratioP1;P1;durP2;ratioP2;P2;SDS_P1;SDS_P2;PMS_P1;PMS_P2;Temp;Humidity;BMP_temperature;BMP_pressure;BME280_temperature;BME280_humidity;BME280_pressure;Samples;Min_cycle;Max_cycle;Signal;HPM_P1;HPM_P2
2021/07/28 00:00:02;;;;;;;1999.90;999.90;;;;;;;18.29;38.32;100668.59;4791816;29;97058;-77
2021/07/28 00:02:39;;;;;;;1999.90;999.90;;;;;;;18.17;38.62;100648.06;4786465;29;96815;-76
2021/07/28 00:05:08;;;;;;;1999.90;999.90;;;;;;;18.13;38.69;100642.75;4791510;29;99595;-77
2021/07/28 00:07:36;;;;;;;1999.90;999.90;;;;;;;18.11;38.66;100644.56;4792021;29;99330;-77
2021/07/28 00:10:07;;;;;;;1999.90;999.90;;;;;;;18.08;38.82;100636.50;4792498;29;96908;-77
2021/07/28 00:12:35;;;;;;;1999.90;999.90;;;;;;;18.01;38.83;100636.56;4793615;29;97356;-77
2021/07/28 00:15:04;;;;;;;1999.90;999.90;;;;;;;18.01;38.72;100638.34;4785283;29;99451;-77
2021/07/28 00:17:32;;;;;;;1999.90;999.90;;;;;;;17.96;38.84;100630.34;4776031;29;100411;-76
2021/07/28 00:20:03;;;;;;;1999.90;999.90;;;;;;;17.93;38.79;100642.91;4793065;29;97190;-77
2021/07/28 00:25:22;;;;;;;1999.90;999.90;;;;;;;17.77;39.06;100636.84;4792334;29;99353;-76
2021/07/28 00:27:50;;;;;;;1999.90;999.90;;;;;;;17.77;39.03;100644.91;4791681;29;100675;-77
2021/07/28 00:30:19;;;;;;;1999.90;999.90;;;;;;;17.74;39.39;100646.75;4791620;29;96840;-77
2021/07/28 00:32:47;;;;;;;1999.90;999.90;;;;;;;17.73;39.24;100636.91;4770547;29;96907;-77
2021/07/28 00:35:15;;;;;;;1999.90;999.90;;;;;;;17.72;39.03;100640.47;4793428;29;98756;-77
2021/07/28 00:37:44;;;;;;;1999.90;999.90;;;;;;;17.69;39.05;100635.13;4792735;29;98121;-76
2021/07/28 00:40:13;;;;;;;1999.90;999.90;;;;;;;17.67;39.15;100637.84;4790748;29;96782;-77
2021/07/28 00:42:43;;;;;;;1999.90;999.90;;;;;;;17.67;38.92;100637.84;4770199;29;96854;-77
2021/07/28 00:45:11;;;;;;;1999.90;999.90;;;;;;;17.63;38.79;100630.72;4792527;29;100501;-77
2021/07/28 00:47:39;;;;;;;1999.90;999.90;;;;;;;17.64;38.86;100616.34;4792148;29;99283;-76
2021/07/28 00:50:08;;;;;;;1999.90;999.90;;;;;;;17.63;38.80;100619.03;4791359;29;98579;-76
2021/07/28 00:52:38;;;;;;;1999.90;999.90;;;;;;;17.62;38.80;100626.22;4792631;29;97794;-76
2021/07/28 00:55:07;;;;;;;1999.90;999.90;;;;;;;17.62;38.78;100634.28;4792076;29;98973;-76
2021/07/28 00:57:36;;;;;;;1999.90;999.90;;;;;;;17.63;38.96;100630.72;4776385;29;99852;-76
2021/07/28 01:00:06;;;;;;;1999.90;999.90;;;;;;;17.62;38.86;100626.22;4792215;29;97391;-77
2021/07/28 01:02:34;;;;;;;1999.90;999.90;;;;;;;17.63;39.04;100629.81;4793167;29;96894;-76
2021/07/28 01:05:04;;;;;;;1999.90;999.90;;;;;;;17.63;39.16;100636.09;4805140;29;99449;-77
2021/07/28 01:07:33;;;;;;;1999.90;999.90;;;;;;;17.64;39.12;100631.56;4792437;29;100498;-77
2021/07/28 01:10:01;;;;;;;1999.90;999.90;;;;;;;17.63;39.14;100636.09;4776931;29;96863;-78
2021/07/28 01:12:31;;;;;;;1999.90;999.90;;;;;;;17.63;39.15;100635.19;4790868;29;97093;-77
2021/07/28 01:14:59;;;;;;;1999.90;999.90;;;;;;;17.63;39.17;100640.56;4791241;29;98230;-76
2021/07/28 01:17:28;;;;;;;1999.90;999.90;;;;;;;17.60;39.25;100633.41;4788172;29;98747;-77
2021/07/28 01:19:59;;;;;;;1999.90;999.90;;;;;;;17.60;39.20;100628.03;4776404;29;97584;-77
2021/07/28 01:22:27;;;;;;;1999.90;999.90;;;;;;;17.60;39.22;100637.94;4790849;29;97464;-77
2021/07/28 01:24:56;;;;;;;1999.90;999.90;;;;;;;17.93;39.21;100630.38;4794792;29;99350;-77
2021/07/28 01:27:24;;;;;;;1999.90;999.90;;;;;;;17.72;39.49;100625.22;4783249;29;99740;-77
2021/07/28 01:29:53;;;;;;;1999.90;999.90;;;;;;;17.67;39.38;100627.09;4775320;29;97201;-77
2021/07/28 01:32:21;;;;;;;1999.90;999.90;;;;;;;17.64;39.31;100626.19;4791144;29;97206;-77
2021/07/28 01:34:49;;;;;;;1999.90;999.90;;;;;;;17.61;39.55;100632.53;4774758;29;99455;-77
2021/07/28 01:37:17;;;;;;;1999.90;999.90;;;;;;;17.59;39.43;100631.63;4790203;29;101412;-77
2021/07/28 01:39:45;;;;;;;1999.90;999.90;;;;;;;17.56;39.90;100626.31;4791704;29;96671;-77
2021/07/28 01:42:15;;;;;;;1999.90;999.90;;;;;;;17.55;39.72;100626.28;4790359;29;97374;-77
2021/07/28 01:44:43;;;;;;;1999.90;999.90;;;;;;;17.55;39.68;100631.66;4774226;29;100857;-77
2021/07/28 01:47:11;;;;;;;1999.90;999.90;;;;;;;17.56;39.81;100625.41;4790015;29;99795;-77
2021/07/28 01:49:40;;;;;;;1999.90;999.90;;;;;;;17.54;40.05;100620.03;4774839;29;96900;-77
2021/07/28 01:52:08;;;;;;;1999.90;999.90;;;;;;;17.49;40.05;100626.38;4789841;29;97367;-76
2021/07/28 01:54:36;;;;;;;1999.90;999.90;;;;;;;17.39;40.11;100620.19;4804560;29;100295;-77
2021/07/28 01:57:04;;;;;;;1999.90;999.90;;;;;;;17.35;40.34;100617.47;4768012;29;99919;-76
2021/07/28 01:59:40;;;;;;;1999.90;999.90;;;;;;;17.31;40.43;100615.75;4775054;29;97107;-76
2021/07/28 02:02:11;;;;;;;1999.90;999.90;;;;;;;17.30;40.45;100617.53;4786994;29;96901;-77
2021/07/28 02:04:39;;;;;;;1999.90;999.90;;;;;;;17.27;40.32;100622.06;4786975;29;100056;-77
2021/07/28 02:07:07;;;;;;;1999.90;999.90;;;;;;;17.20;40.69;100626.56;4772553;29;99346;-77
2021/07/28 02:09:34;;;;;;;1999.90;999.90;;;;;;;17.15;40.68;100625.72;4804104;29;96756;-77
2021/07/28 02:12:02;;;;;;;1999.90;999.90;;;;;;;17.12;40.83;100620.38;4790913;29;96771;-77
2021/07/28 02:14:30;;;;;;;1999.90;999.90;;;;;;;17.05;40.83;100613.28;4788510;29;99414;-76
2021/07/28 02:16:59;;;;;;;1999.90;999.90;;;;;;;16.99;41.05;100622.28;4789047;29;100572;-77
2021/07/28 02:19:27;;;;;;;1999.90;999.90;;;;;;;16.92;41.12;100612.50;4788636;29;97549;-77
2021/07/28 02:21:55;;;;;;;1999.90;999.90;;;;;;;16.86;41.08;100617.00;4789857;29;96978;-77
2021/07/28 02:24:23;;;;;;;1999.90;999.90;;;;;;;16.79;41.24;100617.94;4789188;29;101365;-76
2021/07/28 02:26:51;;;;;;;1999.90;999.90;;;;;;;16.77;41.40;100611.69;4772083;29;99656;-77
2021/07/28 02:29:19;;;;;;;1999.90;999.90;;;;;;;16.72;41.55;100608.16;4790734;29;97470;-77
2021/07/28 02:31:46;;;;;;;1999.90;999.90;;;;;;;16.67;41.57;100607.25;4788997;29;96929;-78
2021/07/28 02:34:16;;;;;;;1999.90;999.90;;;;;;;16.59;41.60;100618.06;4789198;29;100752;-77
2021/07/28 02:36:44;;;;;;;1999.90;999.90;;;;;;;16.54;41.91;100605.56;4787555;29;101043;-77
2021/07/28 02:39:12;;;;;;;1999.90;999.90;;;;;;;16.47;42.07;100603.81;4773647;29;97613;-77
2021/07/28 02:41:40;;;;;;;1999.90;999.90;;;;;;;16.43;41.68;100599.34;4787833;29;96896;-77
2021/07/28 02:44:08;;;;;;;1999.90;999.90;;;;;;;16.39;42.12;100600.25;4788444;29;99242;-77
2021/07/28 02:46:35;;;;;;;1999.90;999.90;;;;;;;16.38;41.71;100606.53;4786862;29;98336;-77
2021/07/28 02:49:03;;;;;;;1999.90;999.90;;;;;;;16.31;42.08;100613.72;4790447;29;98065;-77
2021/07/28 02:51:33;;;;;;;1999.90;999.90;;;;;;;16.25;42.14;100608.38;4788780;29;97350;-77
2021/07/28 02:54:01;;;;;;;1999.90;999.90;;;;;;;16.23;42.31;100614.66;4788474;29;97837;-77
2021/07/28 02:56:28;;;;;;;1999.90;999.90;;;;;;;16.21;42.13;100609.31;4773319;29;99560;-76
2021/07/28 02:58:57;;;;;;;1999.90;999.90;;;;;;;16.23;42.21;100606.63;4773606;29;96790;-78
2021/07/28 03:01:24;;;;;;;1999.90;999.90;;;;;;;16.25;42.44;100608.38;4773647;29;96825;-77
2021/07/28 03:03:52;;;;;;;1999.90;999.90;;;;;;;16.28;42.00;100611.06;4802949;29;100463;-77
2021/07/28 03:06:20;;;;;;;1999.90;999.90;;;;;;;16.29;42.46;100606.59;4766505;29;100591;-77
2021/07/28 03:08:49;;;;;;;1999.90;999.90;;;;;;;16.33;42.08;100593.13;4789530;29;97169;-77
2021/07/28 03:11:17;;;;;;;1999.90;999.90;;;;;;;16.36;42.22;100586.84;4772373;29;97606;-77
2021/07/28 03:13:45;;;;;;;1999.90;999.90;;;;;;;16.35;42.15;100583.28;4773450;29;100660;-77
2021/07/28 03:16:13;;;;;;;1999.90;999.90;;;;;;;16.39;41.85;100587.72;4790092;29;97661;-77
2021/07/28 03:18:41;;;;;;;1999.90;999.90;;;;;;;16.39;41.92;100587.72;4788210;29;96891;-77
2021/07/28 03:21:09;;;;;;;1999.90;999.90;;;;;;;16.42;42.25;100597.53;4789522;29;97658;-77
2021/07/28 03:23:37;;;;;;;1999.90;999.90;;;;;;;16.43;42.12;100593.97;4788103;29;101394;-77
2021/07/28 03:26:07;;;;;;;1999.90;999.90;;;;;;;16.48;42.27;100597.53;4788186;29;98853;-77
2021/07/28 03:28:35;;;;;;;1999.90;999.90;;;;;;;16.50;42.25;100606.47;4788810;29;96894;-77
2021/07/28 03:31:03;;;;;;;1999.90;999.90;;;;;;;16.49;42.16;100596.63;4774246;29;96851;-77
2021/07/28 03:33:31;;;;;;;1999.90;999.90;;;;;;;16.46;42.39;100612.75;4788303;29;100623;-76
2021/07/28 03:35:59;;;;;;;1999.90;999.90;;;;;;;16.38;42.15;100617.28;4767573;29;99705;-77
2021/07/28 03:38:27;;;;;;;1999.90;999.90;;;;;;;16.33;42.35;100622.66;4803011;29;97631;-77
2021/07/28 03:40:55;;;;;;;1999.90;999.90;;;;;;;16.28;42.66;100621.81;4788503;29;96918;-77
2021/07/28 03:43:24;;;;;;;1999.90;999.90;;;;;;;16.21;42.74;100620.06;4772972;29;100688;-77
2021/07/28 03:45:53;;;;;;;1999.90;999.90;;;;;;;16.10;43.07;100619.19;4788799;29;100895;-77
2021/07/28 03:48:21;;;;;;;1999.90;999.90;;;;;;;16.07;43.04;100622.78;4772636;29;96859;-77
2021/07/28 03:50:49;;;;;;;1999.90;999.90;;;;;;;16.05;43.03;100616.53;4805586;29;96930;-77
2021/07/28 03:53:17;;;;;;;1999.90;999.90;;;;;;;16.07;42.79;100624.56;4773402;29;97139;-77
2021/07/28 03:55:45;;;;;;;1999.90;999.90;;;;;;;16.04;43.30;100625.50;4789898;29;99315;-78
2021/07/28 03:58:12;;;;;;;1999.90;999.90;;;;;;;16.00;43.31;100634.44;4790630;29;96952;-76
2021/07/28 04:00:42;;;;;;;1999.90;999.90;;;;;;;15.90;43.53;100635.31;4787426;29;96872;-76
2021/07/28 04:03:10;;;;;;;1999.90;999.90;;;;;;;15.83;43.25;100636.25;4785454;29;99365;-77
2021/07/28 04:05:38;;;;;;;1999.90;999.90;;;;;;;15.78;43.45;100642.50;4770593;29;100625;-77
2021/07/28 04:08:06;;;;;;;1999.90;999.90;;;;;;;15.78;43.60;100643.41;4795212;29;96858;-77
2021/07/28 04:10:35;;;;;;;1999.90;999.90;;;;;;;15.76;43.52;100644.31;4787955;29;97340;-77
2021/07/28 04:13:03;;;;;;;1999.90;999.90;;;;;;;15.85;43.24;100636.22;4802771;29;99433;-77
2021/07/28 04:15:31;;;;;;;1999.90;999.90;;;;;;;15.89;43.35;100644.28;4788186;29;99866;-77
2021/07/28 04:18:00;;;;;;;1999.90;999.90;;;;;;;15.94;43.35;100637.09;4787844;29;96871;-76
2021/07/28 04:20:28;;;;;;;1999.90;999.90;;;;;;;15.96;43.73;100646.03;4771530;29;97021;-77
2021/07/28 04:22:56;;;;;;;1999.90;999.90;;;;;;;16.39;44.00;100632.50;4801907;29;101133;-76
2021/07/28 04:25:26;;;;;;;1999.90;999.90;;;;;;;16.20;44.04;100633.47;4787686;29;99359;-77
2021/07/28 04:27:54;;;;;;;1999.90;999.90;;;;;;;16.14;44.19;100625.44;4789713;29;96903;-76
2021/07/28 04:30:22;;;;;;;1999.90;999.90;;;;;;;16.09;43.99;100626.34;4775123;29;96843;-77
2021/07/28 04:32:50;;;;;;;1999.90;999.90;;;;;;;16.03;44.16;100625.50;4792672;29;98218;-77
2021/07/28 04:35:20;;;;;;;1999.90;999.90;;;;;;;16.02;43.99;100623.69;4789724;29;97547;-77
2021/07/28 04:37:48;;;;;;;1999.90;999.90;;;;;;;15.99;44.33;100626.38;4766727;29;97027;-77
2021/07/28 04:40:17;;;;;;;1999.90;999.90;;;;;;;15.97;44.41;100633.53;4796338;29;97411;-77
2021/07/28 04:42:44;;;;;;;1999.90;999.90;;;;;;;15.93;44.27;100634.44;4806810;29;100537;-77
2021/07/28 04:45:13;;;;;;;1999.90;999.90;;;;;;;15.96;44.09;100638.00;4791274;29;99390;-77
2021/07/28 04:47:41;;;;;;;1999.90;999.90;;;;;;;16.31;45.00;100637.88;4789615;29;97281;-76
2021/07/28 04:50:10;;;;;;;1999.90;999.90;;;;;;;16.49;45.04;100632.44;4789529;29;96944;-77
2021/07/28 04:52:39;;;;;;;1999.90;999.90;;;;;;;16.64;45.42;100640.41;4788980;29;97748;-77
2021/07/28 04:55:08;;;;;;;1999.90;999.90;;;;;;;16.79;45.56;100644.81;4794910;29;99743;-77
2021/07/28 04:57:36;;;;;;;1999.90;999.90;;;;;;;16.89;45.10;100649.22;4789552;29;97139;-76
2021/07/28 05:00:05;;;;;;;1999.90;999.90;;;;;;;16.96;45.13;100645.63;4774747;29;97242;-76
2021/07/28 05:02:32;;;;;;;1999.90;999.90;;;;;;;16.58;45.67;100636.88;4790219;29;99604;-77
2021/07/28 05:05:00;;;;;;;1999.90;999.90;;;;;;;16.40;45.79;100647.69;4793946;29;99001;-77
2021/07/28 05:07:28;;;;;;;1999.90;999.90;;;;;;;16.31;46.12;100647.72;4790737;29;97091;-76
2021/07/28 05:09:58;;;;;;;1999.90;999.90;;;;;;;16.24;45.88;100641.50;4793113;29;96922;-76
2021/07/28 05:12:26;;;;;;;1999.90;999.90;;;;;;;16.19;45.65;100646.00;4783671;29;101071;-77
2021/07/28 05:14:55;;;;;;;1999.90;999.90;;;;;;;16.16;45.73;100643.31;4792058;29;99716;-77
2021/07/28 05:17:24;;;;;;;1999.90;999.90;;;;;;;16.10;46.15;100649.59;4791546;29;96785;-76
2021/07/28 05:19:53;;;;;;;1999.90;999.90;;;;;;;16.02;45.81;100635.34;4790205;29;96898;-77
2021/07/28 05:22:21;;;;;;;1999.90;999.90;;;;;;;16.00;45.77;100647.88;4774293;29;100942;-76
2021/07/28 05:24:48;;;;;;;1999.90;999.90;;;;;;;16.00;45.76;100663.97;4790219;29;100703;-77
2021/07/28 05:27:17;;;;;;;1999.90;999.90;;;;;;;16.01;45.99;100667.56;4788833;29;97192;-77
2021/07/28 05:29:45;;;;;;;1999.90;999.90;;;;;;;16.00;45.88;100663.97;4790908;29;97343;-77
2021/07/28 05:32:13;;;;;;;1999.90;999.90;;;;;;;16.00;45.89;100660.34;4792101;29;97703;-77
2021/07/28 05:34:41;;;;;;;1999.90;999.90;;;;;;;16.00;46.30;100658.59;4774840;29;99216;-77
2021/07/28 05:37:09;;;;;;;1999.90;999.90;;;;;;;16.01;45.92;100660.38;4772848;29;96891;-77
2021/07/28 05:39:37;;;;;;;1999.90;999.90;;;;;;;16.01;46.04;100663.06;4790285;29;97002;-77
2021/07/28 05:42:05;;;;;;;1999.90;999.90;;;;;;;16.01;45.94;100655.00;4789910;29;99425;-77
2021/07/28 05:44:34;;;;;;;1999.90;999.90;;;;;;;15.99;45.95;100661.25;4790548;29;98010;-77
2021/07/28 05:47:02;;;;;;;1999.90;999.90;;;;;;;15.96;46.51;100658.56;4790442;29;96817;-77
2021/07/28 05:49:30;;;;;;;1999.90;999.90;;;;;;;15.93;46.57;100654.13;4790472;29;96942;-77
2021/07/28 05:51:58;;;;;;;1999.90;999.90;;;;;;;15.89;46.53;100656.78;4791763;29;97789;-75
2021/07/28 05:54:25;;;;;;;1999.90;999.90;;;;;;;15.86;46.33;100644.31;4790300;29;97648;-77
2021/07/28 05:56:53;;;;;;;1999.90;999.90;;;;;;;15.88;46.60;100655.03;4789670;29;96988;-77
2021/07/28 05:59:21;;;;;;;1999.90;999.90;;;;;;;15.89;46.50;100651.44;4774292;29;97252;-77
2021/07/28 06:01:50;;;;;;;1999.90;999.90;;;;;;;15.87;46.39;100662.19;4789110;29;99358;-77
2021/07/28 06:04:20;;;;;;;1999.90;999.90;;;;;;;15.86;46.72;100663.09;4804411;29;97192;-77
2021/07/28 06:06:48;;;;;;;1999.90;999.90;;;;;;;15.87;46.63;100662.19;4780574;29;97681;-76
2021/07/28 06:09:15;;;;;;;1999.90;999.90;;;;;;;15.89;46.48;100670.22;4773347;29;97167;-77
2021/07/28 06:11:43;;;;;;;1999.90;999.90;;;;;;;15.85;46.54;100666.66;4773412;29;100413;-77
2021/07/28 06:14:11;;;;;;;1999.90;999.90;;;;;;;15.83;47.02;100665.75;4773759;29;99289;-76
2021/07/28 06:16:40;;;;;;;1999.90;999.90;;;;;;;15.84;46.64;100659.50;4788448;29;97518;-77
2021/07/28 06:19:09;;;;;;;1999.90;999.90;;;;;;;15.85;46.89;100658.59;4789716;29;96901;-77
2021/07/28 06:21:37;;;;;;;1999.90;999.90;;;;;;;15.91;46.96;100661.28;4790818;29;97714;-77
2021/07/28 06:24:05;;;;;;;1999.90;999.90;;;;;;;15.98;46.71;100654.09;4773374;29;100507;-77
2021/07/28 06:26:33;;;;;;;1999.90;999.90;;;;;;;16.01;47.09;100663.06;4786989;29;96971;-77
2021/07/28 06:29:01;;;;;;;1999.90;999.90;;;;;;;16.01;46.61;100657.69;4789339;29;96889;-77
2021/07/28 06:31:29;;;;;;;1999.90;999.90;;;;;;;16.00;46.53;100660.34;4789379;29;99470;-77
2021/07/28 06:33:57;;;;;;;1999.90;999.90;;;;;;;15.97;46.46;100658.59;4790125;29;97607;-77
2021/07/28 06:36:26;;;;;;;1999.90;999.90;;;;;;;15.91;46.52;100661.28;4790719;29;96983;-77
2021/07/28 06:38:54;;;;;;;1999.90;999.90;;;;;;;15.84;46.77;100662.19;4773776;29;96918;-76
2021/07/28 06:41:22;;;;;;;1999.90;999.90;;;;;;;15.81;46.52;100662.19;4789416;29;99831;-76
2021/07/28 06:43:50;;;;;;;1999.90;999.90;;;;;;;15.77;46.67;100663.09;4772621;29;99393;-77
2021/07/28 06:46:19;;;;;;;1999.90;999.90;;;;;;;15.76;46.52;100649.66;4789393;29;96854;-76
2021/07/28 06:48:47;;;;;;;1999.90;999.90;;;;;;;15.78;46.56;100653.25;4790211;29;97393;-76
2021/07/28 06:51:15;;;;;;;1999.90;999.90;;;;;;;15.80;46.85;100651.44;4774639;29;99392;-76
2021/07/28 06:53:44;;;;;;;1999.90;999.90;;;;;;;15.83;46.50;100655.03;4806713;29;100508;-77
2021/07/28 06:56:13;;;;;;;1999.90;999.90;;;;;;;15.84;46.83;100655.94;4792574;29;96856;-77
2021/07/28 06:58:41;;;;;;;1999.90;999.90;;;;;;;16.24;46.41;100662.09;4790497;29;96976;-76
2021/07/28 07:01:09;;;;;;;1999.90;999.90;;;;;;;16.44;46.05;100657.53;4787969;29;97717;-75
2021/07/28 07:03:37;;;;;;;1999.90;999.90;;;;;;;16.53;44.85;100649.41;4773587;29;99832;-77
2021/07/28 07:06:24;;;;;;;1999.90;999.90;;;;;;;16.62;44.73;100655.63;4787799;29;96798;-77
2021/07/28 07:08:54;;;;;;;1999.90;999.90;;;;;;;16.70;44.61;100656.53;4773376;29;97216;-76
2021/07/28 07:11:22;;;;;;;1999.90;999.90;;;;;;;16.79;44.31;100650.19;4786862;29;98043;-76
2021/07/28 07:13:50;;;;;;;1999.90;999.90;;;;;;;16.84;43.17;100661.81;4789307;29;97602;-76
2021/07/28 07:16:18;;;;;;;1999.90;999.90;;;;;;;16.87;43.44;100640.31;4779838;29;97540;-76
2021/07/28 07:18:47;;;;;;;1999.90;999.90;;;;;;;16.89;42.81;100649.22;4786579;29;96913;-76
2021/07/28 07:21:15;;;;;;;1999.90;999.90;;;;;;;16.87;42.61;100656.44;4787763;29;100568;-76
2021/07/28 07:23:43;;;;;;;1999.90;999.90;;;;;;;16.87;42.65;100656.44;4785877;29;99357;-76
2021/07/28 07:26:12;;;;;;;1999.90;999.90;;;;;;;16.88;42.52;100656.41;4788699;29;96996;-76
2021/07/28 07:28:40;;;;;;;1999.90;999.90;;;;;;;16.88;42.63;100651.03;4785816;29;96923;-76
2021/07/28 07:31:09;;;;;;;1999.90;999.90;;;;;;;16.90;42.47;100657.31;4787579;29;98019;-75
2021/07/28 07:33:38;;;;;;;1999.90;999.90;;;;;;;16.91;42.68;100642.03;4802514;29;99846;-76
2021/07/28 07:36:08;;;;;;;1999.90;999.90;;;;;;;16.97;42.56;100637.53;4772417;29;97196;-76
2021/07/28 07:38:36;;;;;;;1999.90;999.90;;;;;;;17.02;42.36;100646.44;4787422;29;97254;-76
2021/07/28 07:41:04;;;;;;;1999.90;999.90;;;;;;;17.07;42.25;100643.75;4801568;29;100555;-76
2021/07/28 07:43:34;;;;;;;1999.90;999.90;;;;;;;17.08;42.14;100642.81;4771808;29;99254;-76
2021/07/28 07:46:02;;;;;;;1999.90;999.90;;;;;;;17.10;42.20;100641.00;4787841;29;97086;-76
2021/07/28 07:48:30;;;;;;;1999.90;999.90;;;;;;;17.15;42.11;100636.50;4787962;29;97065;-76
2021/07/28 07:50:58;;;;;;;1999.90;999.90;;;;;;;17.20;41.90;100634.66;4787291;29;98449;-76
2021/07/28 07:53:26;;;;;;;1999.90;999.90;;;;;;;17.27;41.90;100630.13;4787666;29;100537;-76
2021/07/28 07:55:55;;;;;;;1999.90;999.90;;;;;;;17.31;41.80;100632.75;4786786;29;97196;-76
2021/07/28 07:58:23;;;;;;;1999.90;999.90;;;;;;;17.36;41.81;100641.69;4788579;29;96938;-76
2021/07/28 08:00:52;;;;;;;1999.90;999.90;;;;;;;17.40;41.32;100643.47;4772424;29;99440;-76
2021/07/28 08:03:20;;;;;;;1999.90;999.90;;;;;;;17.43;41.09;100643.47;4775151;29;100470;-76
2021/07/28 08:05:48;;;;;;;1999.90;999.90;;;;;;;17.47;40.80;100650.59;4790037;29;97324;-76
2021/07/28 08:08:17;;;;;;;1999.90;999.90;;;;;;;17.52;40.67;100655.94;4790003;29;97012;-76
2021/07/28 08:10:45;;;;;;;1999.90;999.90;;;;;;;17.54;40.51;100668.47;4791784;29;97734;-76
2021/07/28 08:13:13;;;;;;;1999.90;999.90;;;;;;;17.55;40.50;100659.47;4775102;29;99245;-76
2021/07/28 08:15:40;;;;;;;1999.90;999.90;;;;;;;17.57;40.36;100649.59;4796602;29;98016;-76
2021/07/28 08:18:10;;;;;;;1999.90;999.90;;;;;;;17.59;40.71;100652.25;4774240;29;97099;-76
2021/07/28 08:20:38;;;;;;;1999.90;999.90;;;;;;;17.62;40.42;100655.81;4792429;29;97779;-76
2021/07/28 08:23:06;;;;;;;1999.90;999.90;;;;;;;17.66;40.06;100645.91;4789730;29;99466;-76
2021/07/28 08:25:34;;;;;;;1999.90;999.90;;;;;;;17.68;39.77;100639.63;4791861;29;96957;-76
2021/07/28 08:28:02;;;;;;;1999.90;999.90;;;;;;;17.71;39.63;100636.03;4790634;29;96838;-76
2021/07/28 08:30:30;;;;;;;1999.90;999.90;;;;;;;17.73;39.67;100629.69;4774565;29;100345;-76
2021/07/28 08:32:58;;;;;;;1999.90;999.90;;;;;;;17.77;39.63;100622.47;4790094;29;99654;-76
2021/07/28 08:35:27;;;;;;;1999.90;999.90;;;;;;;17.82;39.73;100623.34;4774847;29;97785;-76
2021/07/28 08:37:55;;;;;;;1999.90;999.90;;;;;;;17.87;39.83;100624.16;4793906;29;97521;-76
2021/07/28 08:40:23;;;;;;;1999.90;999.90;;;;;;;17.90;39.59;100629.50;4774340;29;99381;-76
2021/07/28 08:42:51;;;;;;;1999.90;999.90;;;;;;;17.91;39.33;100642.06;4790751;29;97957;-76
2021/07/28 08:45:19;;;;;;;1999.90;999.90;;;;;;;17.93;39.34;100633.06;4790151;29;96856;-76
2021/07/28 08:47:47;;;;;;;1999.90;999.90;;;;;;;17.97;39.54;100636.59;4782393;29;97159;-76
2021/07/28 08:50:15;;;;;;;1999.90;999.90;;;;;;;17.98;39.35;100633.88;4774710;29;99359;-76
2021/07/28 08:52:45;;;;;;;1999.90;999.90;;;;;;;18.01;39.45;100630.28;4783977;29;99215;-76
2021/07/28 08:55:13;;;;;;;1999.90;999.90;;;;;;;18.07;39.07;100630.25;4804967;29;96933;-76
2021/07/28 08:57:41;;;;;;;1999.90;999.90;;;;;;;18.13;38.95;100634.66;4772820;29;97437;-76
2021/07/28 09:00:11;;;;;;;1999.90;999.90;;;;;;;18.15;38.89;100636.41;4789479;29;98984;-76
2021/07/28 09:02:40;;;;;;;1999.90;999.90;;;;;;;18.19;38.96;100637.28;4773913;29;99753;-76
2021/07/28 09:05:09;;;;;;;1999.90;999.90;;;;;;;18.26;38.57;100644.38;4766506;29;96806;-76
2021/07/28 09:07:39;;;;;;;1999.90;999.90;;;;;;;18.30;38.71;100643.41;4788091;29;97892;-76
2021/07/28 09:10:12;;;;;;;1999.90;999.90;;;;;;;18.37;38.78;100639.75;4804985;29;98723;-76
2021/07/28 09:12:45;;;;;;;1999.90;999.90;;;;;;;18.44;38.74;100638.75;4789608;29;100455;-76
2021/07/28 09:15:15;;;;;;;1999.90;999.90;;;;;;;18.49;38.47;100636.88;4791732;29;97438;-76
2021/07/28 09:17:49;;;;;;;1999.90;999.90;;;;;;;18.53;38.16;100634.09;4788302;29;96838;-76
2021/07/28 09:20:25;;;;;;;1999.90;999.90;;;;;;;18.57;38.41;100645.78;4790139;29;98872;-76
2021/07/28 09:22:53;;;;;;;1999.90;999.90;;;;;;;18.59;38.23;100646.63;4791582;29;97884;-76
2021/07/28 09:25:28;;;;;;;1999.90;999.90;;;;;;;18.64;38.37;100642.94;4788224;29;97037;-76
2021/07/28 09:27:57;;;;;;;1999.90;999.90;;;;;;;18.70;38.49;100650.97;4789877;29;97032;-76
2021/07/28 09:30:33;;;;;;;1999.90;999.90;;;;;;;18.75;37.77;100653.63;4805067;29;99525;-76
2021/07/28 09:33:06;;;;;;;1999.90;999.90;;;;;;;18.81;37.73;100646.34;4787803;29;97814;-76
2021/07/28 09:36:16;;;;;;;1999.90;999.90;;;;;;;18.92;38.08;100641.66;4775156;29;97394;-76
2021/07/28 09:38:45;;;;;;;1999.90;999.90;;;;;;;18.96;37.88;100634.41;4773813;29;96815;-76
2021/07/28 09:41:21;;;;;;;1999.90;999.90;;;;;;;19.01;37.21;100637.94;4772867;29;100502;-76
2021/07/28 09:43:51;;;;;;;1999.90;999.90;;;;;;;19.07;37.37;100632.44;4774368;29;98214;-76
2021/07/28 09:46:31;;;;;;;1999.90;999.90;;;;;;;19.13;37.19;100629.66;4805470;29;96836;-76
2021/07/28 09:49:01;;;;;;;1999.90;999.90;;;;;;;19.18;37.03;100621.47;4787694;29;97017;-76
2021/07/28 09:51:32;;;;;;;1999.90;999.90;;;;;;;19.23;36.88;100611.50;4789275;29;97839;-76
2021/07/28 09:54:05;;;;;;;1999.90;999.90;;;;;;;19.27;37.09;100608.72;4773728;29;97883;-76
2021/07/28 09:56:45;;;;;;;1999.90;999.90;;;;;;;19.33;37.05;100616.75;4789685;29;97526;-76
2021/07/28 09:59:13;;;;;;;1999.90;999.90;;;;;;;19.33;36.99;100623.94;4791551;29;96883;-76
2021/07/28 10:01:43;;;;;;;1999.90;999.90;;;;;;;19.33;36.23;100618.56;4773651;29;98112;-76
2021/07/28 10:04:12;;;;;;;1999.90;999.90;;;;;;;19.33;36.12;100614.06;4789749;29;100618;-76
2021/07/28 10:06:43;;;;;;;1999.90;999.90;;;;;;;19.33;35.87;100622.16;4773194;29;96929;-77
2021/07/28 10:09:12;;;;;;;1999.90;999.90;;;;;;;19.32;36.16;100601.47;4789893;29;97337;-76
2021/07/28 10:11:44;;;;;;;1999.90;999.90;;;;;;;19.34;36.39;100604.13;4780787;29;99722;-76
2021/07/28 10:14:12;;;;;;;1999.90;999.90;;;;;;;19.36;36.28;100603.19;4804516;29;99500;-76
2021/07/28 10:16:40;;;;;;;1999.90;999.90;;;;;;;19.40;36.14;100601.34;4790670;29;97209;-76
2021/07/28 10:19:10;;;;;;;1999.90;999.90;;;;;;;19.44;36.13;100597.66;4806466;29;97193;-76
2021/07/28 10:21:45;;;;;;;1999.90;999.90;;;;;;;19.49;36.49;100588.56;4791218;29;101608;-76
2021/07/28 10:24:13;;;;;;;1999.90;999.90;;;;;;;19.53;35.97;100589.41;4796148;29;100348;-76
2021/07/28 10:26:44;;;;;;;1999.90;999.90;;;;;;;19.57;36.12;100577.63;4790706;29;96830;-76
2021/07/28 10:29:15;;;;;;;1999.90;999.90;;;;;;;19.62;35.83;100579.31;4789232;29;97371;-76
2021/07/28 10:31:47;;;;;;;1999.90;999.90;;;;;;;19.69;36.26;100580.97;4788573;29;97942;-76
2021/07/28 10:34:24;;;;;;;1999.90;999.90;;;;;;;19.73;35.78;100590.81;4788874;29;98832;-76
2021/07/28 10:36:53;;;;;;;1999.90;999.90;;;;;;;19.73;35.48;100604.31;4787512;29;97059;-76
2021/07/28 10:39:38;;;;;;;1999.90;999.90;;;;;;;19.76;35.14;100609.63;4788588;29;97335;-77
2021/07/28 10:42:09;;;;;;;1999.90;999.90;;;;;;;19.75;34.91;100602.47;4788905;29;98967;-76
2021/07/28 10:44:58;;;;;;;1999.90;999.90;;;;;;;19.75;35.21;100607.88;4796663;29;98870;-76
2021/07/28 10:47:34;;;;;;;1999.90;999.90;;;;;;;19.73;34.95;100598.00;4789044;29;96775;-76
2021/07/28 10:50:04;;;;;;;1999.90;999.90;;;;;;;19.74;35.03;100599.78;4787995;29;97530;-76
2021/07/28 10:52:47;;;;;;;1999.90;999.90;;;;;;;19.71;34.75;100594.44;4803459;29;101108;-76
2021/07/28 10:55:20;;;;;;;1999.90;999.90;;;;;;;19.69;35.02;100591.78;4790413;29;98657;-76